Time;durP1;ratioP1;P1;durP2;ratioP2;P2;SDS_P1;SDS_P2;PMS_P1;PMS_P2;Temp;Humidity;BMP_temperature;BMP_pressure;BME280_temperature;BME280_humidity;BME280_pressure;Samples;Min_cycle;Max_cycle;Signal;HPM_P1;HPM_P2
2023/08/12 10:13:13;;;;;;;3.78;1.33;;;;;;;28.59;45.51;96895.03;5134477;23;20146;-77
2023/08/12 10:15:41;;;;;;;1.60;1.50;;;;;;;28.67;45.82;96892.50;4900166;29;20096;-76
2023/08/12 10:18:09;;;;;;;3.97;2.22;;;;;;;28.68;45.80;96888.69;4900583;29;20052;-81
2023/08/12 10:20:39;;;;;;;2.92;2.25;;;;;;;28.61;46.21;96882.13;4899605;29;20135;-81
2023/08/12 10:23:08;;;;;;;2.33;2.08;;;;;;;28.46;46.29;96883.09;4899159;29;20053;-80
2023/08/12 10:25:38;;;;;;;2.20;1.80;;;;;;;28.27;47.21;96877.72;4900266;29;20495;-80
2023/08/12 10:28:06;;;;;;;5.07;2.50;;;;;;;28.13;46.96;96874.97;4921043;23;20096;-72
2023/08/12 10:30:37;;;;;;;4.15;3.10;;;;;;;28.06;48.45;96885.25;4900111;29;20113;-83
2023/08/12 10:33:06;;;;;;;3.83;3.25;;;;;;;28.13;51.08;96861.56;4908864;29;20073;-83
2023/08/12 10:35:45;;;;;;;4.07;2.90;;;;;;;28.33;51.61;96863.94;4906432;29;20108;-82
2023/08/12 10:38:17;;;;;;;3.42;3.13;;;;;;;28.46;50.80;96867.78;4905232;29;20048;-80
2023/08/12 10:40:45;;;;;;;4.40;3.53;;;;;;;28.61;51.12;96853.38;4901093;29;20430;-79
2023/08/12 10:43:14;;;;;;;3.25;2.95;;;;;;;28.77;50.58;96853.94;4899670;29;20060;-80
2023/08/12 10:45:45;;;;;;;3.50;3.17;;;;;;;28.92;51.35;96858.28;4912224;29;20055;-81
2023/08/12 10:48:19;;;;;;;3.10;2.90;;;;;;;29.08;51.02;96859.63;4905602;29;20056;-81
2023/08/12 10:50:50;;;;;;;4.47;2.67;;;;;;;29.21;50.67;96854.59;4902688;29;20161;-81
2023/08/12 10:53:31;;;;;;;3.65;2.60;;;;;;;29.35;50.30;96852.72;4901843;29;20663;-82
2023/08/12 10:56:00;;;;;;;3.08;2.33;;;;;;;29.50;50.01;96849.75;4901106;29;20060;-82
2023/08/12 10:58:29;;;;;;;3.75;3.17;;;;;;;29.66;49.41;96841.41;4900400;29;20052;-83
2023/08/12 11:00:59;;;;;;;3.30;3.00;;;;;;;29.78;47.55;96839.00;4899903;29;20065;-83
2023/08/12 11:03:26;;;;;;;3.30;2.75;;;;;;;29.90;48.44;96833.94;4900009;29;20052;-83
2023/08/12 11:05:56;;;;;;;7.82;3.53;;;;;;;30.03;48.36;96828.84;4899756;29;20533;-83
2023/08/12 11:08:29;;;;;;;3.53;2.85;;;;;;;30.19;49.07;96822.00;4900012;29;20059;-83
2023/08/12 11:10:57;;;;;;;3.28;2.95;;;;;;;30.31;48.12;96810.78;4899494;29;20111;-83
2023/08/12 11:13:28;;;;;;;3.50;3.20;;;;;;;30.35;48.42;96801.78;4899308;29;20511;-83
2023/08/12 11:16:08;;;;;;;5.35;3.33;;;;;;;30.41;47.40;96799.75;4899950;29;20147;-84
2023/08/12 11:18:37;;;;;;;3.50;3.20;;;;;;;30.44;46.82;96793.78;4899031;29;20052;-83
2023/08/12 11:21:05;;;;;;;6.32;3.30;;;;;;;30.42;47.66;96803.25;4899542;29;20056;-84
2023/08/12 11:23:33;;;;;;;4.93;3.47;;;;;;;30.42;47.22;96814.03;4899513;29;20052;-83
2023/08/12 11:26:01;;;;;;;4.38;3.17;;;;;;;30.38;46.67;96820.00;4899262;29;20059;-83
2023/08/12 11:28:29;;;;;;;6.07;4.10;;;;;;;30.33;47.25;96825.50;4900115;29;20456;-83
2023/08/12 11:30:57;;;;;;;9.00;3.67;;;;;;;30.27;47.24;96824.00;4899382;29;20132;-84
2023/08/12 11:33:26;;;;;;;3.15;2.92;;;;;;;30.25;47.13;96831.56;4898865;29;20052;-82
2023/08/12 11:35:54;;;;;;;4.90;3.13;;;;;;;30.23;47.67;96820.31;4900101;29;20095;-83
2023/08/12 11:38:22;;;;;;;5.95;3.35;;;;;;;30.16;49.00;96820.72;4900275;29;20060;-83
2023/08/12 11:40:51;;;;;;;3.50;3.20;;;;;;;30.07;47.56;96819.88;4901502;29;20498;-83
2023/08/12 11:43:22;;;;;;;3.28;2.95;;;;;;;30.00;48.69;96811.41;4901418;29;20060;-84
2023/08/12 11:45:49;;;;;;;3.17;2.92;;;;;;;29.97;48.05;96815.47;4901394;29;20068;-83
2023/08/12 11:48:17;;;;;;;3.55;2.70;;;;;;;29.95;46.93;96811.50;4900801;29;20048;-82
2023/08/12 11:50:46;;;;;;;4.80;2.65;;;;;;;29.90;45.04;96809.72;4900919;29;20060;-83
2023/08/12 11:53:14;;;;;;;3.53;2.47;;;;;;;29.85;44.59;96799.09;4901390;29;20438;-83
2023/08/12 11:55:42;;;;;;;3.10;2.20;;;;;;;29.78;44.35;96790.63;4901056;29;20173;-83
2023/08/12 11:58:12;;;;;;;3.47;2.15;;;;;;;29.74;43.78;96790.44;4900557;29;20084;-83
2023/08/12 12:00:39;;;;;;;3.08;2.13;;;;;;;29.70;43.51;96783.28;4903105;29;20059;-83
2023/08/12 12:03:07;;;;;;;2.92;2.60;;;;;;;29.65;43.57;96792.22;4920671;29;20048;-84
2023/08/12 12:05:35;;;;;;;6.10;2.17;;;;;;;29.70;43.74;96785.97;4921546;29;20105;-85
2023/08/12 12:08:08;;;;;;;2.58;2.28;;;;;;;29.77;43.59;96783.66;4920000;29;20052;-84
2023/08/12 12:10:36;;;;;;;3.70;2.25;;;;;;;29.82;44.44;96783.53;4908119;29;20112;-83
2023/08/12 12:13:05;;;;;;;2.58;2.20;;;;;;;29.87;44.28;96770.00;4907413;29;20064;-83
2023/08/12 12:15:33;;;;;;;2.63;2.42;;;;;;;29.92;44.20;96774.47;4908991;29;20056;-83
2023/08/12 12:18:00;;;;;;;4.25;2.40;;;;;;;29.97;42.73;96777.84;4909296;29;20060;-83
2023/08/12 12:20:29;;;;;;;2.40;2.20;;;;;;;30.01;43.10;96791.47;4908987;29;20048;-83
2023/08/12 12:22:57;;;;;;;3.13;2.13;;;;;;;30.06;42.94;96801.31;4908200;29;20045;-83
2023/08/12 12:25:26;;;;;;;3.40;2.20;;;;;;;30.14;43.34;96806.00;4907137;29;20049;-83
2023/08/12 12:27:53;;;;;;;3.45;2.08;;;;;;;30.22;42.77;96804.47;4907553;29;20076;-83
2023/08/12 12:30:21;;;;;;;2.28;2.08;;;;;;;30.33;43.00;96812.06;4907252;29;20056;-83
2023/08/12 12:32:49;;;;;;;3.08;2.05;;;;;;;30.44;42.99;96809.91;4907031;29;20124;-82
2023/08/12 12:35:16;;;;;;;3.53;2.03;;;;;;;30.48;42.15;96815.47;4907542;29;20128;-83
2023/08/12 12:37:44;;;;;;;2.13;1.95;;;;;;;30.43;42.17;96802.16;4906933;29;20053;-83
2023/08/12 12:40:12;;;;;;;3.40;2.28;;;;;;;30.44;41.78;96790.25;4907112;29;20500;-82
2023/08/12 12:42:41;;;;;;;2.40;2.20;;;;;;;30.48;41.92;96791.25;4906672;29;20057;-83
2023/08/12 12:45:10;;;;;;;3.13;2.28;;;;;;;30.52;42.27;96797.63;4906156;29;20533;-83
2023/08/12 12:47:38;;;;;;;3.38;2.33;;;;;;;30.51;42.52;96794.13;4906758;29;20100;-83
2023/08/12 12:50:07;;;;;;;3.67;2.28;;;;;;;30.49;42.89;96801.72;4906582;29;20052;-83
2023/08/12 12:52:34;;;;;;;5.60;2.50;;;;;;;30.47;42.34;96786.97;4905691;29;20057;-83
2023/08/12 12:55:04;;;;;;;3.45;2.70;;;;;;;30.46;41.89;96793.44;4905829;29;20426;-83
2023/08/12 12:57:31;;;;;;;3.88;2.30;;;;;;;30.43;42.08;96788.69;4906078;29;20048;-83
2023/08/12 13:00:00;;;;;;;4.90;2.55;;;;;;;30.41;42.13;96791.66;4906805;29;20136;-83
2023/08/12 13:02:28;;;;;;;3.05;2.00;;;;;;;30.40;42.23;96790.09;4909282;29;20051;-83
2023/08/12 13:04:56;;;;;;;3.78;2.22;;;;;;;30.39;42.55;96786.63;4908998;29;20048;-82
2023/08/12 13:07:24;;;;;;;4.40;2.50;;;;;;;30.46;42.81;96788.06;4915310;29;20052;-84
2023/08/12 13:09:51;;;;;;;7.25;2.65;;;;;;;30.50;42.97;96784.47;4903065;29;20129;-83
2023/08/12 13:12:19;;;;;;;4.95;2.47;;;;;;;30.53;42.39;96793.84;4900971;29;20104;-83
2023/08/12 13:14:47;;;;;;;2.55;2.08;;;;;;;30.51;42.26;96791.44;4901324;29;20446;-83
2023/08/12 13:17:16;;;;;;;2.80;2.28;;;;;;;30.45;41.91;96781.88;4901388;29;20048;-83
2023/08/12 13:19:43;;;;;;;4.10;2.72;;;;;;;30.37;42.00;96764.59;4901623;29;20579;-83
2023/08/12 13:22:11;;;;;;;3.88;2.40;;;;;;;30.29;41.82;96759.94;4906298;29;20084;-82
2023/08/12 13:24:39;;;;;;;2.65;2.20;;;;;;;30.16;42.15;96750.78;4905606;29;20048;-83
2023/08/12 13:27:07;;;;;;;3.22;2.63;;;;;;;30.03;42.09;96753.53;4906065;29;20077;-83
2023/08/12 13:29:35;;;;;;;5.38;2.38;;;;;;;29.91;42.23;96764.81;4905092;29;20563;-82
2023/08/12 13:32:02;;;;;;;3.70;2.55;;;;;;;29.78;42.36;96790.63;4905007;29;20498;-80
2023/08/12 13:34:32;;;;;;;6.53;2.70;;;;;;;29.62;43.35;96896.84;4904980;29;20053;-82
2023/08/12 13:36:59;;;;;;;8.18;3.30;;;;;;;29.42;46.95;96976.75;4903862;29;20056;-83
2023/08/12 13:39:27;;;;;;;6.57;3.83;;;;;;;29.04;52.75;97062.72;4904148;29;20060;-82
2023/08/12 13:41:56;;;;;;;5.25;3.58;;;;;;;28.59;54.91;97105.16;4903496;29;20060;-81
2023/08/12 13:44:24;;;;;;;10.10;3.22;;;;;;;28.15;55.87;97073.94;4900547;29;20080;-82
2023/08/12 13:46:52;;;;;;;6.82;4.15;;;;;;;27.74;57.13;97058.19;4901238;29;20502;-82
2023/08/12 13:49:19;;;;;;;9.65;3.90;;;;;;;27.32;58.56;97057.72;4911047;29;20511;-83
2023/08/12 13:51:48;;;;;;;12.20;5.28;;;;;;;26.98;61.21;97038.88;4923588;29;20037;-84
2023/08/12 13:54:16;;;;;;;11.30;4.53;;;;;;;26.68;62.46;96989.00;4923887;29;20068;-82
2023/08/12 13:56:44;;;;;;;4.63;2.88;;;;;;;26.38;61.10;96987.25;4923885;29;20105;-82
2023/08/12 13:59:11;;;;;;;4.07;2.75;;;;;;;26.10;61.92;96976.09;4923994;29;20272;-82
2023/08/12 14:01:39;;;;;;;5.88;2.80;;;;;;;25.86;62.49;96974.00;4924299;29;20088;-82
2023/08/12 14:04:10;;;;;;;5.70;3.13;;;;;;;25.61;63.34;96976.72;4924966;29;20041;-81
2023/08/12 14:33:39;;;;;;;4.53;3.20;;;;;;;23.97;69.80;96912.38;5278858;23;19914;-78
2023/08/12 14:36:07;;;;;;;5.40;3.10;;;;;;;23.89;71.68;96907.53;4923378;29;20063;-78
2023/08/12 14:38:36;;;;;;;5.07;3.75;;;;;;;23.84;72.44;96892.34;4923814;29;20084;-78
2023/08/12 14:41:04;;;;;;;5.78;2.50;;;;;;;23.81;71.55;96893.66;4923897;29;20032;-78
2023/08/12 14:43:32;;;;;;;6.00;3.88;;;;;;;23.83;74.49;96880.06;4923998;29;20112;-78
